createdAt,value
2023-09-14T00:00:20.399Z,4.00
2023-09-14T00:01:20.399Z,4.40
2023-09-14T00:02:20.264Z,4.60
2023-09-14T00:03:20.281Z,4.70
2023-09-14T00:04:20.328Z,4.30
2023-09-14T00:05:20.114Z,4.20
2023-09-14T00:06:20.024Z,3.80
2023-09-14T00:07:19.963Z,4.70
2023-09-14T00:08:19.895Z,4.70
2023-09-14T00:09:19.842Z,4.40
2023-09-14T00:10:19.873Z,4.30
2023-09-14T00:11:19.723Z,4.20
2023-09-14T00:12:19.652Z,4.50
2023-09-14T00:13:19.599Z,4.90
2023-09-14T00:14:19.529Z,4.00
2023-09-14T00:15:19.533Z,4.30
2023-09-14T00:16:19.616Z,4.30
2023-09-14T00:17:19.459Z,4.60
2023-09-14T00:18:19.288Z,4.90
2023-09-14T00:19:19.222Z,4.90
2023-09-14T00:20:19.173Z,4.30
2023-09-14T00:21:19.101Z,3.80
2023-09-14T00:22:19.043Z,4.30
2023-09-14T00:23:18.979Z,4.60
2023-09-14T00:24:18.924Z,4.20
2023-09-14T00:25:18.860Z,4.50
2023-09-14T00:26:18.799Z,4.30
2023-09-14T00:27:18.733Z,4.60
2023-09-14T00:28:18.675Z,4.30
2023-09-14T00:29:18.617Z,4.30
2023-09-14T00:30:18.551Z,4.50
2023-09-14T00:31:18.568Z,4.10
2023-09-14T00:32:18.434Z,4.60
2023-09-14T00:33:18.372Z,4.50
2023-09-14T00:34:18.305Z,4.70
2023-09-14T00:35:18.259Z,4.40
2023-09-14T00:36:18.191Z,4.10
2023-09-14T00:37:18.128Z,4.50
2023-09-14T00:38:18.068Z,5.00
2023-09-14T00:39:18.008Z,4.00
2023-09-14T00:40:17.952Z,4.60
2023-09-14T00:41:17.885Z,4.10
2023-09-14T00:42:17.820Z,4.10
2023-09-14T00:43:17.778Z,4.60
2023-09-14T00:44:17.704Z,4.30
2023-09-14T00:45:17.636Z,5.00
2023-09-14T00:46:17.588Z,4.60
2023-09-14T00:47:17.514Z,4.50
2023-09-14T00:48:17.452Z,4.50
2023-09-14T00:49:17.389Z,4.20
2023-09-14T00:50:17.330Z,3.80
2023-09-14T00:51:17.281Z,4.80
2023-09-14T00:52:17.213Z,4.20
2023-09-14T00:53:17.158Z,4.50
2023-09-14T00:54:17.087Z,4.80
2023-09-14T00:55:17.023Z,4.40
2023-09-14T00:56:16.959Z,4.70
2023-09-14T00:57:16.918Z,4.80
2023-09-14T00:58:16.911Z,4.90
2023-09-14T00:59:16.882Z,5.70
2023-09-14T01:00:16.728Z,4.20
2023-09-14T01:01:16.662Z,5.30
2023-09-14T01:02:16.622Z,5.00
2023-09-14T01:03:16.676Z,4.30
2023-09-14T01:04:16.637Z,4.00
2023-09-14T01:05:16.429Z,4.70
2023-09-14T01:06:16.346Z,5.30
2023-09-14T01:07:16.287Z,4.80
2023-09-14T01:08:16.224Z,5.00
2023-09-14T01:09:16.167Z,4.60
2023-09-14T01:10:16.111Z,4.80
2023-09-14T01:11:16.070Z,4.40
2023-09-14T01:12:15.996Z,4.80
2023-09-14T01:13:15.935Z,4.60
2023-09-14T01:14:15.861Z,4.20
2023-09-14T01:15:15.800Z,4.40
2023-09-14T01:16:15.754Z,4.80
2023-09-14T01:17:15.671Z,4.70
2023-09-14T01:18:15.611Z,5.30
2023-09-14T01:19:15.602Z,4.80
2023-09-14T01:20:15.491Z,5.20
2023-09-14T01:21:15.443Z,5.50
2023-09-14T01:22:15.375Z,5.30
2023-09-14T01:23:15.317Z,4.90
2023-09-14T01:24:15.248Z,4.20
2023-09-14T01:25:15.179Z,5.00
2023-09-14T01:26:15.117Z,4.60
2023-09-14T01:27:15.070Z,4.70
2023-09-14T01:28:15.006Z,4.70
2023-09-14T01:29:14.938Z,4.70
2023-09-14T01:30:14.882Z,3.90
2023-09-14T01:31:14.815Z,4.70
2023-09-14T01:32:14.750Z,4.20
2023-09-14T01:33:14.695Z,4.40
2023-09-14T01:34:14.758Z,5.00
2023-09-14T01:35:14.572Z,4.60
2023-09-14T01:36:14.550Z,4.50
2023-09-14T01:37:14.481Z,5.00
2023-09-14T01:38:14.387Z,4.20
2023-09-14T01:39:14.325Z,5.10
2023-09-14T01:40:14.293Z,4.80
2023-09-14T01:41:14.203Z,5.00
2023-09-14T01:42:14.160Z,4.10
2023-09-14T01:43:14.079Z,4.60
2023-09-14T01:44:14.037Z,4.20
2023-09-14T01:45:13.954Z,5.20
2023-09-14T01:46:13.949Z,5.10
2023-09-14T01:47:13.833Z,4.60
2023-09-14T01:48:13.775Z,4.90
2023-09-14T01:49:13.751Z,4.90
2023-09-14T01:50:13.644Z,4.30
2023-09-14T01:51:13.591Z,4.40
2023-09-14T01:52:13.565Z,4.80
2023-09-14T01:53:13.480Z,5.20
2023-09-14T01:54:13.411Z,4.50
2023-09-14T01:55:13.394Z,4.30
2023-09-14T01:56:13.287Z,5.00
2023-09-14T01:57:13.223Z,4.50
2023-09-14T01:58:13.261Z,4.70
2023-09-14T01:59:13.090Z,4.60
2023-09-14T02:00:13.031Z,4.60
2023-09-14T02:01:12.995Z,4.40
2023-09-14T02:02:12.910Z,4.40
2023-09-14T02:03:12.853Z,4.50
2023-09-14T02:04:12.840Z,4.30
2023-09-14T02:05:12.804Z,4.60
2023-09-14T02:06:12.665Z,4.90
2023-09-14T02:07:12.629Z,4.30
2023-09-14T02:08:12.535Z,4.30
2023-09-14T02:09:12.491Z,4.60
2023-09-14T02:10:12.478Z,4.40
2023-09-14T02:11:12.351Z,4.70
2023-09-14T02:12:12.303Z,4.30
2023-09-14T02:13:12.289Z,4.70
2023-09-14T02:14:12.189Z,4.60
2023-09-14T02:15:12.111Z,4.40
2023-09-14T02:16:12.121Z,4.20
2023-09-14T02:17:11.984Z,4.60
2023-09-14T02:18:11.921Z,4.20
2023-09-14T02:19:11.914Z,4.50
2023-09-14T02:20:11.834Z,4.40
2023-09-14T02:21:11.744Z,4.20
2023-09-14T02:22:11.720Z,4.10
2023-09-14T02:23:11.615Z,4.70
2023-09-14T02:24:11.574Z,4.70
2023-09-14T02:25:11.528Z,4.10
2023-09-14T02:26:11.429Z,4.60
2023-09-14T02:27:11.382Z,5.20
2023-09-14T02:28:11.468Z,4.40
2023-09-14T02:29:11.249Z,4.50
2023-09-14T02:30:11.222Z,4.50
2023-09-14T02:31:11.196Z,4.90
2023-09-14T02:32:11.098Z,4.30
2023-09-14T02:33:11.084Z,4.30
2023-09-14T02:34:11.003Z,4.70
2023-09-14T02:35:10.886Z,4.70
2023-09-14T02:36:10.850Z,4.30
2023-09-14T02:37:10.772Z,4.50
2023-09-14T02:38:10.706Z,4.50
2023-09-14T02:39:10.662Z,4.40
2023-09-14T02:40:10.664Z,4.60
2023-09-14T02:41:10.516Z,4.60
2023-09-14T02:42:10.464Z,4.30
2023-09-14T02:43:10.427Z,4.50
2023-09-14T02:44:10.336Z,4.90
2023-09-14T02:45:10.312Z,4.40
2023-09-14T02:46:10.291Z,4.50
2023-09-14T02:47:10.182Z,4.50
2023-09-14T02:48:10.120Z,4.10
2023-09-14T02:49:10.067Z,4.90
2023-09-14T02:50:09.960Z,4.40
2023-09-14T02:51:09.957Z,4.70
2023-09-14T02:52:09.886Z,4.20
2023-09-14T02:53:09.770Z,4.40
2023-09-14T02:54:09.733Z,4.70
2023-09-14T02:55:09.708Z,4.70
2023-09-14T02:56:09.590Z,5.00
2023-09-14T02:57:09.549Z,4.20
2023-09-14T02:58:09.533Z,5.20
2023-09-14T02:59:09.426Z,4.40
2023-09-14T03:00:09.450Z,5.00
2023-09-14T03:01:09.422Z,4.20
2023-09-14T03:02:09.260Z,4.90
2023-09-14T03:03:09.278Z,4.20
2023-09-14T03:04:09.135Z,4.60
2023-09-14T03:05:09.037Z,5.20
2023-09-14T03:06:08.984Z,4.80
2023-09-14T03:07:09.020Z,4.80
2023-09-14T03:08:08.847Z,4.70
2023-09-14T03:09:08.806Z,4.90
2023-09-14T03:10:08.773Z,5.30
2023-09-14T03:11:08.671Z,5.10
2023-09-14T03:12:08.611Z,5.00
2023-09-14T03:13:08.549Z,4.90
2023-09-14T03:14:08.504Z,5.30
2023-09-14T03:15:08.436Z,4.90
2023-09-14T03:16:08.402Z,4.80
2023-09-14T03:17:08.293Z,5.00
2023-09-14T03:18:08.268Z,5.40
2023-09-14T03:19:08.224Z,4.50
2023-09-14T03:20:08.113Z,4.30
2023-09-14T03:21:08.066Z,4.40
2023-09-14T03:22:08.094Z,5.10
2023-09-14T03:23:07.924Z,4.80
2023-09-14T03:24:07.890Z,5.30
2023-09-14T03:25:07.948Z,5.50
2023-09-14T03:26:07.747Z,4.70
2023-09-14T03:27:07.693Z,4.70
2023-09-14T03:28:07.729Z,4.30
2023-09-14T03:29:07.571Z,5.30
2023-09-14T03:30:07.537Z,5.00
2023-09-14T03:31:07.537Z,4.90
2023-09-14T03:32:07.421Z,5.00
2023-09-14T03:33:07.404Z,5.00
2023-09-14T03:34:07.284Z,5.10
2023-09-14T03:35:07.190Z,5.20
2023-09-14T03:36:07.121Z,5.70
2023-09-14T03:37:07.102Z,5.90
2023-09-14T03:38:07.007Z,4.90
2023-09-14T03:39:06.935Z,5.30
2023-09-14T03:40:06.948Z,5.80
2023-09-14T03:41:06.815Z,4.70
2023-09-14T03:42:06.760Z,5.50
2023-09-14T03:43:06.750Z,5.40
2023-09-14T03:44:06.639Z,5.40
2023-09-14T03:45:06.588Z,5.40
2023-09-14T03:46:06.593Z,4.90
2023-09-14T03:47:06.450Z,4.90
2023-09-14T03:48:06.427Z,4.80
2023-09-14T03:49:06.378Z,5.80
2023-09-14T03:50:06.279Z,5.10
2023-09-14T03:51:06.197Z,5.80
2023-09-14T03:52:06.183Z,5.40
2023-09-14T03:53:06.084Z,6.10
2023-09-14T03:54:07.249Z,6.60
2023-09-14T03:55:06.025Z,6.00
2023-09-14T03:56:05.890Z,6.10
2023-09-14T03:57:05.828Z,5.50
2023-09-14T03:58:05.826Z,6.10
2023-09-14T03:59:05.704Z,5.50
2023-09-14T04:00:05.646Z,5.40
2023-09-14T04:01:05.726Z,5.30
2023-09-14T04:02:05.599Z,5.30
2023-09-14T04:03:05.535Z,6.10
2023-09-14T04:04:05.463Z,5.80
2023-09-14T04:05:05.348Z,5.60
2023-09-14T04:06:05.313Z,5.10
2023-09-14T04:07:05.279Z,5.70
2023-09-14T04:08:05.188Z,5.60
2023-09-14T04:09:05.090Z,5.70
2023-09-14T04:10:05.096Z,6.00
2023-09-14T04:11:04.987Z,5.90
2023-09-14T04:12:04.908Z,5.50
2023-09-14T04:13:04.920Z,5.80
2023-09-14T04:14:04.805Z,5.80
2023-09-14T04:15:04.725Z,6.30
2023-09-14T04:16:04.885Z,5.20
2023-09-14T04:17:04.644Z,6.30
2023-09-14T04:18:04.573Z,5.40
2023-09-14T04:19:04.539Z,6.00
2023-09-14T04:20:04.423Z,5.80
2023-09-14T04:21:04.371Z,6.10
2023-09-14T04:22:04.323Z,6.50
2023-09-14T04:23:04.274Z,5.70
2023-09-14T04:24:04.167Z,6.20
2023-09-14T04:25:04.134Z,6.50
2023-09-14T04:26:04.068Z,6.90
2023-09-14T04:27:03.986Z,5.80
2023-09-14T04:28:03.953Z,5.80
2023-09-14T04:29:03.883Z,6.30
2023-09-14T04:30:03.813Z,6.60
2023-09-14T04:31:03.996Z,6.00
2023-09-14T04:32:03.682Z,6.00
2023-09-14T04:33:03.669Z,6.50
2023-09-14T04:34:03.639Z,5.90
2023-09-14T04:35:03.485Z,5.90
2023-09-14T04:36:03.471Z,5.90
2023-09-14T04:37:03.398Z,6.50
2023-09-14T04:38:03.298Z,6.00
2023-09-14T04:39:03.242Z,5.90
2023-09-14T04:40:03.201Z,6.50
2023-09-14T04:41:03.152Z,5.90
2023-09-14T04:42:03.068Z,6.50
2023-09-14T04:43:03.024Z,6.10
2023-09-14T04:44:02.953Z,6.50
2023-09-14T04:45:02.907Z,7.50
2023-09-14T04:46:02.899Z,6.70
2023-09-14T04:47:02.818Z,6.50
2023-09-14T04:48:02.865Z,7.10
2023-09-14T04:49:02.714Z,6.70
2023-09-14T04:50:02.593Z,6.40
2023-09-14T04:51:02.529Z,6.70
2023-09-14T04:52:02.464Z,7.10
2023-09-14T04:53:02.378Z,5.80
2023-09-14T04:54:02.340Z,6.60
2023-09-14T04:55:02.316Z,6.30
2023-09-14T04:56:02.216Z,7.30
2023-09-14T04:57:02.132Z,6.30
2023-09-14T04:58:02.096Z,6.40
2023-09-14T04:59:02.017Z,6.20
2023-09-14T05:00:01.987Z,6.40
2023-09-14T05:01:01.961Z,6.40
2023-09-14T05:02:01.818Z,6.10
2023-09-14T05:03:01.827Z,6.80
2023-09-14T05:04:03.572Z,6.90
2023-09-14T05:05:01.653Z,7.00
2023-09-14T05:06:01.580Z,7.20
2023-09-14T05:07:01.529Z,6.80
2023-09-14T05:08:01.455Z,7.10
2023-09-14T05:09:01.407Z,6.70
2023-09-14T05:10:01.370Z,7.40
2023-09-14T05:11:01.263Z,6.80
2023-09-14T05:12:01.203Z,7.10
2023-09-14T05:13:02.328Z,7.30
2023-09-14T05:14:01.069Z,7.30
2023-09-14T05:15:01.025Z,7.60
2023-09-14T05:16:00.994Z,7.00
2023-09-14T05:17:00.921Z,7.40
2023-09-14T05:18:00.859Z,8.10
2023-09-14T05:19:01.001Z,7.90
2023-09-14T05:20:00.703Z,7.90
2023-09-14T05:21:00.655Z,8.00
2023-09-14T05:22:00.622Z,7.60
2023-09-14T05:23:00.525Z,8.40
2023-09-14T05:24:00.474Z,7.60
2023-09-14T05:25:00.437Z,8.40
2023-09-14T05:26:00.349Z,7.60
2023-09-14T05:27:00.268Z,6.90
2023-09-14T05:28:00.262Z,7.50
2023-09-14T05:29:00.146Z,7.70
2023-09-14T05:30:00.084Z,7.30
2023-09-14T05:31:00.072Z,7.30
2023-09-14T05:31:59.955Z,6.50
2023-09-14T05:33:09.229Z,8.20
2023-09-14T11:21:58.417Z,11.40
2023-09-14T11:22:57.987Z,12.10
2023-09-14T11:23:58.360Z,11.40
2023-09-14T11:25:00.130Z,11.70
2023-09-14T11:26:10.532Z,11.60
2023-09-14T11:26:59.563Z,11.80
2023-09-14T11:27:57.664Z,12.30
2023-09-14T11:28:57.881Z,12.20
2023-09-14T11:29:59.902Z,12.70
2023-09-14T11:30:59.713Z,12.70
2023-09-14T11:32:01.740Z,12.10
2023-09-14T11:32:58.128Z,11.50
2023-09-14T11:33:59.699Z,13.00
2023-09-14T11:34:57.711Z,12.10
2023-09-14T11:36:00.262Z,11.40
2023-09-14T11:36:58.190Z,11.60
2023-09-14T11:37:59.327Z,11.00
2023-09-14T11:38:58.274Z,10.20
2023-09-14T11:39:58.811Z,9.60
2023-09-14T11:41:08.153Z,10.60
2023-09-14T11:41:59.256Z,10.30
2023-09-14T11:42:57.860Z,10.20
2023-09-14T11:44:20.571Z,10.10
2023-09-14T11:45:00.434Z,8.90
2023-09-14T11:45:59.269Z,9.20
2023-09-14T11:46:58.917Z,9.10
2023-09-14T11:49:56.275Z,9.60
2023-09-14T11:50:58.430Z,8.70
2023-09-14T11:51:56.097Z,8.80
2023-09-14T11:52:56.069Z,8.70
2023-09-14T11:53:56.006Z,9.00
2023-09-14T11:54:55.941Z,8.30
2023-09-14T11:55:55.863Z,8.50
2023-09-14T11:56:55.802Z,7.90
2023-09-14T11:57:55.764Z,8.00
2023-09-14T11:58:55.682Z,8.50
2023-09-14T11:59:55.643Z,8.20
2023-09-14T12:00:55.729Z,8.10
2023-09-14T12:01:55.502Z,8.00
2023-09-14T12:02:55.460Z,8.50
2023-09-14T12:03:55.428Z,7.80
2023-09-14T12:04:55.339Z,8.30
2023-09-14T12:05:55.628Z,7.90
2023-09-14T12:06:55.231Z,8.00
2023-09-14T12:07:55.139Z,8.10
2023-09-14T12:08:55.078Z,8.10
2023-09-14T12:09:55.062Z,7.60
2023-09-14T12:11:02.638Z,7.30
2023-09-14T15:03:03.858Z,3.60
2023-09-14T15:04:03.735Z,3.70
